This is the latest recevied weather packets stored in our database for station/object CALDNA-WX. If no packets are shown the sender has not sent any weather packets the latest 10 day(s).
| Time | Temp. | Humidity | Pressure | Rain* | Wind** | Luminosity | Snow |
|---|---|---|---|---|---|---|---|
| 1777910453 | 19.44° C | 44% | 975.4 hPa | 0 mm | - | - | - |
| 1777909526 | 18.89° C | 57% | 975.9 hPa | 0 mm | - | - | - |
| 1777908643 | 18.33° C | 57% | 975.9 hPa | 0 mm | - | - | - |
| 1777907727 | 17.78° C | 57% | 975.9 hPa | 0 mm | - | - | - |
| 1777906855 | 17.22° C | 57% | 975.9 hPa | 0 mm | - | - | - |
| 1777905926 | 16.67° C | 63% | 976.2 hPa | 0 mm | - | - | - |
| 1777905044 | 16.11° C | 68% | 976.9 hPa | 0 mm | - | - | - |
| 1777904122 | 15.56° C | 68% | 976.9 hPa | 0 mm | - | - | - |
| 1777903257 | 15° C | 62% | 976 hPa | 0 mm | - | - | - |
| 1777902326 | 13.89° C | 67% | 976 hPa | 0 mm | - | - | - |
| 1777901444 | 13.33° C | 67% | 975.9 hPa | 0 mm | - | - | - |
| 1777900526 | 12.78° C | 67% | 975.9 hPa | 0 mm | - | - | - |
| 1777899654 | 12.22° C | 71% | 975.9 hPa | 0 mm | - | - | - |
| 1777898726 | 11.67° C | 76% | 976.2 hPa | 0 mm | - | - | - |
| 1777897844 | 11.11° C | 76% | 976.3 hPa | 0 mm | - | - | - |
| 1777896926 | 10.56° C | 76% | 976.3 hPa | 0 mm | - | - | - |
| 1777896054 | 10° C | 76% | 976.3 hPa | 0 mm | - | - | - |
| 1777895126 | 8.89° C | 78% | 975.4 hPa | 0 mm | - | - | - |
| 1777894242 | 8.33° C | 82% | 975.7 hPa | 0 mm | - | - | - |
| 1777893326 | 7.78° C | 82% | 975.7 hPa | 0 mm | - | - | - |
| 1777892452 | 7.78° C | 82% | 975.7 hPa | 0 mm | - | - | - |
| 1777891526 | 7.78° C | 79% | 975.9 hPa | 0 mm | - | - | - |
| 1777890645 | 7.78° C | 81% | 975.8 hPa | 0 mm | - | - | - |
| 1777889723 | 7.78° C | 81% | 975.8 hPa | 0 mm | - | - | - |
| 1777888849 | 8.33° C | 81% | 975.8 hPa | 0 mm | - | - | - |
* Rain latest hour (hover to see other rain measurements)
** Current wind speed in m/s (hover to see current wind gust speed)